sensor_id;sensor_type;location;lat;lon;timestamp;P1;durP1;ratioP1;P2;durP2;ratioP2
17915;SDS011;9083;49.156;8.982;2024-02-26T00:00:41;3.07;;;2.40;;
17915;SDS011;9083;49.156;8.982;2024-02-26T00:03:09;2.60;;;2.37;;
17915;SDS011;9083;49.156;8.982;2024-02-26T00:05:35;2.23;;;2.13;;
17915;SDS011;9083;49.156;8.982;2024-02-26T00:08:03;3.27;;;2.40;;
17915;SDS011;9083;49.156;8.982;2024-02-26T00:10:29;2.30;;;2.17;;
17915;SDS011;9083;49.156;8.982;2024-02-26T00:12:56;2.27;;;2.07;;
17915;SDS011;9083;49.156;8.982;2024-02-26T00:15:22;2.47;;;2.27;;
17915;SDS011;9083;49.156;8.982;2024-02-26T00:17:49;5.77;;;2.40;;
17915;SDS011;9083;49.156;8.982;2024-02-26T00:20:17;4.10;;;2.70;;
17915;SDS011;9083;49.156;8.982;2024-02-26T00:22:43;2.40;;;2.30;;
17915;SDS011;9083;49.156;8.982;2024-02-26T00:25:09;3.07;;;2.40;;
17915;SDS011;9083;49.156;8.982;2024-02-26T00:27:37;2.50;;;2.30;;
17915;SDS011;9083;49.156;8.982;2024-02-26T00:30:04;3.80;;;2.33;;
17915;SDS011;9083;49.156;8.982;2024-02-26T00:32:31;2.20;;;2.10;;
17915;SDS011;9083;49.156;8.982;2024-02-26T00:34:57;3.40;;;2.70;;
17915;SDS011;9083;49.156;8.982;2024-02-26T00:37:25;3.77;;;2.40;;
17915;SDS011;9083;49.156;8.982;2024-02-26T00:39:51;4.27;;;2.27;;
17915;SDS011;9083;49.156;8.982;2024-02-26T00:42:19;2.47;;;2.27;;
17915;SDS011;9083;49.156;8.982;2024-02-26T00:44:45;3.43;;;2.53;;
17915;SDS011;9083;49.156;8.982;2024-02-26T00:47:11;3.17;;;2.60;;
17915;SDS011;9083;49.156;8.982;2024-02-26T00:49:37;2.93;;;2.67;;
17915;SDS011;9083;49.156;8.982;2024-02-26T00:52:04;3.33;;;2.27;;
17915;SDS011;9083;49.156;8.982;2024-02-26T00:54:32;3.87;;;2.60;;
17915;SDS011;9083;49.156;8.982;2024-02-26T00:56:58;2.90;;;2.57;;
17915;SDS011;9083;49.156;8.982;2024-02-26T00:59:24;2.57;;;2.37;;
17915;SDS011;9083;49.156;8.982;2024-02-26T01:01:50;2.37;;;2.10;;
17915;SDS011;9083;49.156;8.982;2024-02-26T01:04:17;2.30;;;2.03;;
17915;SDS011;9083;49.156;8.982;2024-02-26T01:06:43;2.40;;;2.27;;
17915;SDS011;9083;49.156;8.982;2024-02-26T01:09:09;2.30;;;2.10;;
17915;SDS011;9083;49.156;8.982;2024-02-26T01:11:37;2.67;;;2.47;;
17915;SDS011;9083;49.156;8.982;2024-02-26T01:14:03;2.37;;;2.17;;
17915;SDS011;9083;49.156;8.982;2024-02-26T01:16:29;2.20;;;2.10;;
17915;SDS011;9083;49.156;8.982;2024-02-26T01:18:57;2.70;;;2.50;;
17915;SDS011;9083;49.156;8.982;2024-02-26T01:21:23;2.60;;;2.37;;
17915;SDS011;9083;49.156;8.982;2024-02-26T01:23:49;2.30;;;2.17;;
17915;SDS011;9083;49.156;8.982;2024-02-26T01:26:15;2.00;;;1.90;;
17915;SDS011;9083;49.156;8.982;2024-02-26T01:28:43;3.43;;;2.50;;
17915;SDS011;9083;49.156;8.982;2024-02-26T01:31:09;2.83;;;2.63;;
17915;SDS011;9083;49.156;8.982;2024-02-26T01:33:36;2.67;;;2.47;;
17915;SDS011;9083;49.156;8.982;2024-02-26T01:36:02;3.10;;;2.80;;
17915;SDS011;9083;49.156;8.982;2024-02-26T01:38:28;2.93;;;2.73;;
17915;SDS011;9083;49.156;8.982;2024-02-26T01:40:55;3.97;;;2.80;;
17915;SDS011;9083;49.156;8.982;2024-02-26T01:43:21;2.53;;;2.33;;
17915;SDS011;9083;49.156;8.982;2024-02-26T01:45:49;2.57;;;2.23;;
17915;SDS011;9083;49.156;8.982;2024-02-26T01:48:15;2.83;;;2.57;;
17915;SDS011;9083;49.156;8.982;2024-02-26T01:50:42;3.37;;;2.67;;
17915;SDS011;9083;49.156;8.982;2024-02-26T01:53:08;2.97;;;2.77;;
17915;SDS011;9083;49.156;8.982;2024-02-26T01:55:35;4.67;;;2.43;;
17915;SDS011;9083;49.156;8.982;2024-02-26T01:58:01;2.53;;;2.33;;
17915;SDS011;9083;49.156;8.982;2024-02-26T02:00:28;2.43;;;2.23;;
17915;SDS011;9083;49.156;8.982;2024-02-26T02:02:55;3.73;;;2.70;;
17915;SDS011;9083;49.156;8.982;2024-02-26T02:05:22;2.57;;;1.90;;
17915;SDS011;9083;49.156;8.982;2024-02-26T02:07:48;2.30;;;2.20;;
17915;SDS011;9083;49.156;8.982;2024-02-26T02:10:16;2.23;;;2.13;;
17915;SDS011;9083;49.156;8.982;2024-02-26T02:12:43;4.67;;;1.87;;
17915;SDS011;9083;49.156;8.982;2024-02-26T02:15:09;2.43;;;2.10;;
17915;SDS011;9083;49.156;8.982;2024-02-26T02:17:35;2.20;;;2.10;;
17915;SDS011;9083;49.156;8.982;2024-02-26T02:20:03;2.13;;;1.90;;
17915;SDS011;9083;49.156;8.982;2024-02-26T02:22:31;2.27;;;2.13;;
17915;SDS011;9083;49.156;8.982;2024-02-26T02:24:58;2.00;;;1.90;;
17915;SDS011;9083;49.156;8.982;2024-02-26T02:27:24;2.40;;;2.20;;
17915;SDS011;9083;49.156;8.982;2024-02-26T02:29:51;2.37;;;2.10;;
17915;SDS011;9083;49.156;8.982;2024-02-26T02:32:17;3.20;;;2.23;;
17915;SDS011;9083;49.156;8.982;2024-02-26T02:34:44;2.37;;;2.07;;
17915;SDS011;9083;49.156;8.982;2024-02-26T02:37:10;2.77;;;2.53;;
17915;SDS011;9083;49.156;8.982;2024-02-26T02:39:38;3.10;;;2.80;;
17915;SDS011;9083;49.156;8.982;2024-02-26T02:42:04;3.03;;;2.60;;
17915;SDS011;9083;49.156;8.982;2024-02-26T02:44:31;2.60;;;2.40;;
17915;SDS011;9083;49.156;8.982;2024-02-26T02:46:57;2.50;;;2.30;;
17915;SDS011;9083;49.156;8.982;2024-02-26T02:49:23;5.60;;;2.60;;
17915;SDS011;9083;49.156;8.982;2024-02-26T02:51:49;2.03;;;1.93;;
17915;SDS011;9083;49.156;8.982;2024-02-26T02:54:16;2.83;;;1.97;;
17915;SDS011;9083;49.156;8.982;2024-02-26T02:56:43;1.30;;;1.30;;
17915;SDS011;9083;49.156;8.982;2024-02-26T02:59:09;1.63;;;1.57;;
17915;SDS011;9083;49.156;8.982;2024-02-26T03:01:36;1.80;;;1.70;;
17915;SDS011;9083;49.156;8.982;2024-02-26T03:04:02;1.30;;;1.30;;
17915;SDS011;9083;49.156;8.982;2024-02-26T03:06:28;1.53;;;1.43;;
17915;SDS011;9083;49.156;8.982;2024-02-26T03:08:55;1.40;;;1.30;;
17915;SDS011;9083;49.156;8.982;2024-02-26T03:11:21;1.37;;;1.37;;
17915;SDS011;9083;49.156;8.982;2024-02-26T03:13:49;1.70;;;1.60;;
17915;SDS011;9083;49.156;8.982;2024-02-26T03:16:16;1.30;;;1.10;;
17915;SDS011;9083;49.156;8.982;2024-02-26T03:18:42;1.10;;;1.10;;
17915;SDS011;9083;49.156;8.982;2024-02-26T03:21:09;1.00;;;1.00;;
17915;SDS011;9083;49.156;8.982;2024-02-26T03:23:35;1.13;;;1.13;;
17915;SDS011;9083;49.156;8.982;2024-02-26T03:26:02;0.90;;;0.90;;
17915;SDS011;9083;49.156;8.982;2024-02-26T03:28:28;1.00;;;1.00;;
17915;SDS011;9083;49.156;8.982;2024-02-26T03:30:57;0.93;;;0.93;;
17915;SDS011;9083;49.156;8.982;2024-02-26T03:33:23;1.30;;;1.00;;
17915;SDS011;9083;49.156;8.982;2024-02-26T03:35:49;1.00;;;1.00;;
17915;SDS011;9083;49.156;8.982;2024-02-26T03:38:15;1.00;;;1.00;;
17915;SDS011;9083;49.156;8.982;2024-02-26T03:40:42;0.90;;;0.90;;
17915;SDS011;9083;49.156;8.982;2024-02-26T03:43:08;1.30;;;1.20;;
17915;SDS011;9083;49.156;8.982;2024-02-26T03:45:34;1.03;;;1.00;;
17915;SDS011;9083;49.156;8.982;2024-02-26T03:48:02;1.57;;;1.50;;
17915;SDS011;9083;49.156;8.982;2024-02-26T03:50:28;1.20;;;1.20;;
17915;SDS011;9083;49.156;8.982;2024-02-26T03:52:55;1.03;;;1.03;;
17915;SDS011;9083;49.156;8.982;2024-02-26T03:55:22;1.27;;;1.27;;
17915;SDS011;9083;49.156;8.982;2024-02-26T03:57:50;1.23;;;1.23;;
17915;SDS011;9083;49.156;8.982;2024-02-26T04:00:16;1.40;;;1.30;;
17915;SDS011;9083;49.156;8.982;2024-02-26T04:02:42;1.50;;;1.40;;
17915;SDS011;9083;49.156;8.982;2024-02-26T04:05:10;1.00;;;1.00;;
17915;SDS011;9083;49.156;8.982;2024-02-26T04:07:37;1.17;;;1.17;;
17915;SDS011;9083;49.156;8.982;2024-02-26T04:10:03;2.47;;;1.10;;
17915;SDS011;9083;49.156;8.982;2024-02-26T04:12:34;1.53;;;1.50;;
17915;SDS011;9083;49.156;8.982;2024-02-26T04:15:00;1.00;;;1.00;;
17915;SDS011;9083;49.156;8.982;2024-02-26T04:17:27;1.27;;;1.27;;
17915;SDS011;9083;49.156;8.982;2024-02-26T04:19:53;1.23;;;1.23;;
17915;SDS011;9083;49.156;8.982;2024-02-26T04:22:21;1.00;;;1.00;;
17915;SDS011;9083;49.156;8.982;2024-02-26T04:24:47;1.17;;;1.17;;
17915;SDS011;9083;49.156;8.982;2024-02-26T04:27:13;1.30;;;1.30;;
17915;SDS011;9083;49.156;8.982;2024-02-26T04:29:39;1.40;;;1.30;;
17915;SDS011;9083;49.156;8.982;2024-02-26T04:32:06;2.70;;;1.60;;
17915;SDS011;9083;49.156;8.982;2024-02-26T04:34:32;1.60;;;1.50;;
17915;SDS011;9083;49.156;8.982;2024-02-26T04:36:59;3.50;;;1.60;;
17915;SDS011;9083;49.156;8.982;2024-02-26T04:39:26;2.50;;;1.80;;
17915;SDS011;9083;49.156;8.982;2024-02-26T04:41:52;2.57;;;2.37;;
17915;SDS011;9083;49.156;8.982;2024-02-26T04:44:19;5.77;;;2.00;;
17915;SDS011;9083;49.156;8.982;2024-02-26T04:46:45;2.20;;;2.10;;
17915;SDS011;9083;49.156;8.982;2024-02-26T04:49:11;2.37;;;2.27;;
17915;SDS011;9083;49.156;8.982;2024-02-26T04:51:37;2.47;;;2.13;;
17915;SDS011;9083;49.156;8.982;2024-02-26T04:54:04;2.70;;;2.50;;
17915;SDS011;9083;49.156;8.982;2024-02-26T04:56:31;2.73;;;2.53;;
17915;SDS011;9083;49.156;8.982;2024-02-26T04:58:58;4.00;;;2.80;;
17915;SDS011;9083;49.156;8.982;2024-02-26T05:01:24;3.20;;;2.90;;
17915;SDS011;9083;49.156;8.982;2024-02-26T05:03:50;4.63;;;2.80;;
17915;SDS011;9083;49.156;8.982;2024-02-26T05:06:17;3.90;;;3.23;;
17915;SDS011;9083;49.156;8.982;2024-02-26T05:08:43;5.87;;;2.77;;
17915;SDS011;9083;49.156;8.982;2024-02-26T05:11:11;5.90;;;2.80;;
17915;SDS011;9083;49.156;8.982;2024-02-26T05:13:38;6.57;;;3.20;;
17915;SDS011;9083;49.156;8.982;2024-02-26T05:16:05;5.17;;;2.67;;
17915;SDS011;9083;49.156;8.982;2024-02-26T05:18:31;4.80;;;2.97;;
17915;SDS011;9083;49.156;8.982;2024-02-26T05:20:57;4.23;;;3.13;;
17915;SDS011;9083;49.156;8.982;2024-02-26T05:23:23;6.70;;;3.23;;
17915;SDS011;9083;49.156;8.982;2024-02-26T05:25:50;5.00;;;2.97;;
17915;SDS011;9083;49.156;8.982;2024-02-26T05:28:16;4.27;;;3.20;;
17915;SDS011;9083;49.156;8.982;2024-02-26T05:30:46;8.53;;;3.33;;
17915;SDS011;9083;49.156;8.982;2024-02-26T05:33:13;6.93;;;2.93;;
17915;SDS011;9083;49.156;8.982;2024-02-26T05:35:40;5.73;;;2.70;;
17915;SDS011;9083;49.156;8.982;2024-02-26T05:38:06;5.83;;;3.23;;
17915;SDS011;9083;49.156;8.982;2024-02-26T05:40:32;5.07;;;3.33;;
17915;SDS011;9083;49.156;8.982;2024-02-26T05:42:58;5.07;;;3.37;;
17915;SDS011;9083;49.156;8.982;2024-02-26T05:45:25;3.53;;;3.23;;
17915;SDS011;9083;49.156;8.982;2024-02-26T05:47:53;5.50;;;3.30;;
17915;SDS011;9083;49.156;8.982;2024-02-26T05:50:19;6.17;;;3.13;;
17915;SDS011;9083;49.156;8.982;2024-02-26T05:52:45;3.87;;;2.93;;
17915;SDS011;9083;49.156;8.982;2024-02-26T05:55:12;5.37;;;3.00;;
17915;SDS011;9083;49.156;8.982;2024-02-26T05:57:38;4.87;;;3.07;;
17915;SDS011;9083;49.156;8.982;2024-02-26T06:00:05;4.13;;;2.83;;
17915;SDS011;9083;49.156;8.982;2024-02-26T06:02:32;3.07;;;2.20;;
17915;SDS011;9083;49.156;8.982;2024-02-26T06:04:59;6.57;;;3.10;;
17915;SDS011;9083;49.156;8.982;2024-02-26T06:07:25;3.93;;;3.10;;
17915;SDS011;9083;49.156;8.982;2024-02-26T06:09:52;4.07;;;3.50;;
17915;SDS011;9083;49.156;8.982;2024-02-26T06:12:18;4.20;;;2.90;;
17915;SDS011;9083;49.156;8.982;2024-02-26T06:14:44;7.27;;;3.70;;
17915;SDS011;9083;49.156;8.982;2024-02-26T06:17:11;4.73;;;3.13;;
17915;SDS011;9083;49.156;8.982;2024-02-26T06:19:37;3.10;;;2.80;;
17915;SDS011;9083;49.156;8.982;2024-02-26T06:22:04;3.33;;;2.90;;
17915;SDS011;9083;49.156;8.982;2024-02-26T06:24:31;4.00;;;3.07;;
17915;SDS011;9083;49.156;8.982;2024-02-26T06:26:57;6.73;;;3.47;;
17915;SDS011;9083;49.156;8.982;2024-02-26T06:29:23;5.93;;;3.67;;
17915;SDS011;9083;49.156;8.982;2024-02-26T06:31:50;6.30;;;3.07;;
17915;SDS011;9083;49.156;8.982;2024-02-26T06:34:16;5.83;;;3.43;;
17915;SDS011;9083;49.156;8.982;2024-02-26T06:36:43;3.33;;;3.03;;
17915;SDS011;9083;49.156;8.982;2024-02-26T06:39:10;4.47;;;3.80;;
17915;SDS011;9083;49.156;8.982;2024-02-26T06:41:37;5.53;;;3.40;;
17915;SDS011;9083;49.156;8.982;2024-02-26T06:44:04;7.27;;;3.63;;
17915;SDS011;9083;49.156;8.982;2024-02-26T06:46:31;4.30;;;3.90;;
17915;SDS011;9083;49.156;8.982;2024-02-26T06:48:57;4.17;;;3.30;;
17915;SDS011;9083;49.156;8.982;2024-02-26T06:51:23;3.80;;;3.50;;
17915;SDS011;9083;49.156;8.982;2024-02-26T06:53:49;9.00;;;3.43;;
17915;SDS011;9083;49.156;8.982;2024-02-26T06:56:17;5.53;;;2.87;;
17915;SDS011;9083;49.156;8.982;2024-02-26T06:58:43;3.93;;;3.53;;
17915;SDS011;9083;49.156;8.982;2024-02-26T07:01:10;5.87;;;3.10;;
17915;SDS011;9083;49.156;8.982;2024-02-26T07:03:36;3.63;;;3.00;;
17915;SDS011;9083;49.156;8.982;2024-02-26T07:06:02;3.57;;;3.23;;
17915;SDS011;9083;49.156;8.982;2024-02-26T07:08:29;5.40;;;3.20;;
17915;SDS011;9083;49.156;8.982;2024-02-26T07:10:55;4.00;;;2.90;;
17915;SDS011;9083;49.156;8.982;2024-02-26T07:13:22;4.83;;;3.13;;
17915;SDS011;9083;49.156;8.982;2024-02-26T07:15:49;4.83;;;3.50;;
17915;SDS011;9083;49.156;8.982;2024-02-26T07:18:15;4.47;;;3.20;;
17915;SDS011;9083;49.156;8.982;2024-02-26T07:20:41;3.97;;;3.57;;
17915;SDS011;9083;49.156;8.982;2024-02-26T07:23:08;4.23;;;3.50;;
17915;SDS011;9083;49.156;8.982;2024-02-26T07:25:34;5.63;;;3.53;;
17915;SDS011;9083;49.156;8.982;2024-02-26T07:28:01;5.23;;;3.33;;
17915;SDS011;9083;49.156;8.982;2024-02-26T07:30:28;4.40;;;3.97;;
17915;SDS011;9083;49.156;8.982;2024-02-26T07:32:54;6.07;;;3.30;;
17915;SDS011;9083;49.156;8.982;2024-02-26T07:35:21;4.37;;;3.80;;
17915;SDS011;9083;49.156;8.982;2024-02-26T07:37:48;3.47;;;3.17;;
17915;SDS011;9083;49.156;8.982;2024-02-26T07:40:14;4.60;;;4.20;;
17915;SDS011;9083;49.156;8.982;2024-02-26T07:42:41;5.77;;;3.27;;
17915;SDS011;9083;49.156;8.982;2024-02-26T07:45:07;6.33;;;3.20;;
17915;SDS011;9083;49.156;8.982;2024-02-26T07:47:35;4.93;;;3.67;;
17915;SDS011;9083;49.156;8.982;2024-02-26T07:50:03;3.37;;;3.10;;
17915;SDS011;9083;49.156;8.982;2024-02-26T07:52:29;3.50;;;3.10;;
17915;SDS011;9083;49.156;8.982;2024-02-26T07:54:55;3.40;;;3.10;;
17915;SDS011;9083;49.156;8.982;2024-02-26T07:57:22;3.80;;;2.87;;
17915;SDS011;9083;49.156;8.982;2024-02-26T07:59:48;6.03;;;3.07;;
17915;SDS011;9083;49.156;8.982;2024-02-26T08:02:14;4.83;;;3.07;;
17915;SDS011;9083;49.156;8.982;2024-02-26T08:04:42;5.07;;;3.00;;
17915;SDS011;9083;49.156;8.982;2024-02-26T08:07:08;3.97;;;3.10;;
17915;SDS011;9083;49.156;8.982;2024-02-26T08:09:34;3.53;;;3.27;;
17915;SDS011;9083;49.156;8.982;2024-02-26T08:12:01;3.30;;;3.00;;
17915;SDS011;9083;49.156;8.982;2024-02-26T08:14:27;4.53;;;3.40;;
17915;SDS011;9083;49.156;8.982;2024-02-26T08:16:53;4.03;;;3.20;;
17915;SDS011;9083;49.156;8.982;2024-02-26T08:19:19;4.97;;;2.83;;
17915;SDS011;9083;49.156;8.982;2024-02-26T08:21:47;3.40;;;3.07;;
17915;SDS011;9083;49.156;8.982;2024-02-26T08:24:13;3.33;;;2.70;;
17915;SDS011;9083;49.156;8.982;2024-02-26T08:26:40;7.30;;;3.20;;
17915;SDS011;9083;49.156;8.982;2024-02-26T08:29:06;4.73;;;3.37;;
17915;SDS011;9083;49.156;8.982;2024-02-26T08:31:32;3.40;;;3.10;;
17915;SDS011;9083;49.156;8.982;2024-02-26T08:34:01;3.93;;;3.20;;
17915;SDS011;9083;49.156;8.982;2024-02-26T08:36:28;5.13;;;3.27;;
17915;SDS011;9083;49.156;8.982;2024-02-26T08:38:55;3.23;;;3.00;;
17915;SDS011;9083;49.156;8.982;2024-02-26T08:41:22;5.27;;;3.33;;
17915;SDS011;9083;49.156;8.982;2024-02-26T08:43:48;3.70;;;3.40;;
17915;SDS011;9083;49.156;8.982;2024-02-26T08:46:14;4.23;;;3.67;;
17915;SDS011;9083;49.156;8.982;2024-02-26T08:48:40;4.97;;;3.73;;
17915;SDS011;9083;49.156;8.982;2024-02-26T08:51:07;6.00;;;3.80;;
17915;SDS011;9083;49.156;8.982;2024-02-26T08:53:33;6.43;;;3.47;;
17915;SDS011;9083;49.156;8.982;2024-02-26T08:56:01;4.20;;;3.57;;
17915;SDS011;9083;49.156;8.982;2024-02-26T08:58:28;5.63;;;3.20;;
17915;SDS011;9083;49.156;8.982;2024-02-26T09:00:54;4.23;;;3.47;;
17915;SDS011;9083;49.156;8.982;2024-02-26T09:03:20;8.00;;;3.27;;
17915;SDS011;9083;49.156;8.982;2024-02-26T09:05:47;4.37;;;3.47;;
17915;SDS011;9083;49.156;8.982;2024-02-26T09:08:13;5.83;;;3.30;;
17915;SDS011;9083;49.156;8.982;2024-02-26T09:10:39;3.53;;;3.07;;
17915;SDS011;9083;49.156;8.982;2024-02-26T09:13:07;6.77;;;3.47;;
17915;SDS011;9083;49.156;8.982;2024-02-26T09:15:33;8.43;;;3.10;;
17915;SDS011;9083;49.156;8.982;2024-02-26T09:17:59;4.03;;;3.63;;
17915;SDS011;9083;49.156;8.982;2024-02-26T09:20:26;5.10;;;3.43;;
17915;SDS011;9083;49.156;8.982;2024-02-26T09:22:52;3.93;;;3.57;;
17915;SDS011;9083;49.156;8.982;2024-02-26T09:25:19;6.37;;;3.83;;
17915;SDS011;9083;49.156;8.982;2024-02-26T09:27:46;5.10;;;3.37;;
17915;SDS011;9083;49.156;8.982;2024-02-26T09:30:14;4.47;;;3.63;;
17915;SDS011;9083;49.156;8.982;2024-02-26T09:32:40;4.57;;;3.60;;
17915;SDS011;9083;49.156;8.982;2024-02-26T09:35:06;5.73;;;3.73;;
17915;SDS011;9083;49.156;8.982;2024-02-26T09:37:33;3.70;;;3.33;;
17915;SDS011;9083;49.156;8.982;2024-02-26T09:40:01;5.83;;;3.37;;
17915;SDS011;9083;49.156;8.982;2024-02-26T09:42:28;4.77;;;3.17;;
17915;SDS011;9083;49.156;8.982;2024-02-26T09:44:57;4.83;;;3.60;;
17915;SDS011;9083;49.156;8.982;2024-02-26T09:47:28;4.00;;;3.40;;
17915;SDS011;9083;49.156;8.982;2024-02-26T09:49:54;3.77;;;3.00;;
17915;SDS011;9083;49.156;8.982;2024-02-26T09:52:22;4.33;;;2.90;;
17915;SDS011;9083;49.156;8.982;2024-02-26T09:54:49;3.47;;;3.00;;
17915;SDS011;9083;49.156;8.982;2024-02-26T09:57:16;2.70;;;2.50;;
17915;SDS011;9083;49.156;8.982;2024-02-26T09:59:43;2.90;;;2.60;;
17915;SDS011;9083;49.156;8.982;2024-02-26T10:02:11;3.07;;;2.50;;
17915;SDS011;9083;49.156;8.982;2024-02-26T10:04:39;4.50;;;2.70;;
17915;SDS011;9083;49.156;8.982;2024-02-26T10:07:05;5.07;;;3.10;;
17915;SDS011;9083;49.156;8.982;2024-02-26T10:09:35;3.60;;;3.13;;
17915;SDS011;9083;49.156;8.982;2024-02-26T10:12:02;4.43;;;3.07;;
17915;SDS011;9083;49.156;8.982;2024-02-26T10:14:28;3.77;;;2.93;;
17915;SDS011;9083;49.156;8.982;2024-02-26T10:16:54;3.20;;;2.90;;
17915;SDS011;9083;49.156;8.982;2024-02-26T10:19:27;8.13;;;3.60;;
17915;SDS011;9083;49.156;8.982;2024-02-26T10:21:57;3.70;;;3.37;;
17915;SDS011;9083;49.156;8.982;2024-02-26T10:24:23;3.40;;;3.00;;
17915;SDS011;9083;49.156;8.982;2024-02-26T10:26:50;3.93;;;3.00;;
17915;SDS011;9083;49.156;8.982;2024-02-26T10:29:16;5.50;;;3.30;;
17915;SDS011;9083;49.156;8.982;2024-02-26T10:31:43;5.10;;;3.10;;
17915;SDS011;9083;49.156;8.982;2024-02-26T10:34:10;4.43;;;3.27;;
17915;SDS011;9083;49.156;8.982;2024-02-26T10:36:37;4.20;;;2.90;;
17915;SDS011;9083;49.156;8.982;2024-02-26T10:39:07;5.10;;;3.20;;
17915;SDS011;9083;49.156;8.982;2024-02-26T10:41:33;4.67;;;2.87;;
17915;SDS011;9083;49.156;8.982;2024-02-26T10:44:00;3.43;;;3.07;;
17915;SDS011;9083;49.156;8.982;2024-02-26T10:46:27;3.67;;;2.77;;
17915;SDS011;9083;49.156;8.982;2024-02-26T10:48:53;4.10;;;3.20;;
17915;SDS011;9083;49.156;8.982;2024-02-26T10:51:20;3.90;;;3.50;;
17915;SDS011;9083;49.156;8.982;2024-02-26T10:53:48;4.43;;;2.90;;
17915;SDS011;9083;49.156;8.982;2024-02-26T10:56:19;3.40;;;3.10;;
17915;SDS011;9083;49.156;8.982;2024-02-26T10:58:46;3.70;;;3.40;;
17915;SDS011;9083;49.156;8.982;2024-02-26T11:01:12;4.77;;;3.23;;
17915;SDS011;9083;49.156;8.982;2024-02-26T11:03:39;5.10;;;3.77;;
17915;SDS011;9083;49.156;8.982;2024-02-26T11:06:06;3.40;;;3.10;;
17915;SDS011;9083;49.156;8.982;2024-02-26T11:08:33;4.67;;;3.67;;
17915;SDS011;9083;49.156;8.982;2024-02-26T11:11:00;3.63;;;3.30;;
17915;SDS011;9083;49.156;8.982;2024-02-26T11:13:28;3.20;;;2.90;;
17915;SDS011;9083;49.156;8.982;2024-02-26T11:15:56;3.23;;;2.70;;
17915;SDS011;9083;49.156;8.982;2024-02-26T11:18:23;3.30;;;2.53;;
17915;SDS011;9083;49.156;8.982;2024-02-26T11:20:49;2.80;;;2.60;;
17915;SDS011;9083;49.156;8.982;2024-02-26T11:23:17;3.33;;;2.87;;
17915;SDS011;9083;49.156;8.982;2024-02-26T11:25:43;4.67;;;3.13;;
17915;SDS011;9083;49.156;8.982;2024-02-26T11:28:10;3.20;;;2.90;;
17915;SDS011;9083;49.156;8.982;2024-02-26T11:30:39;3.17;;;2.70;;
17915;SDS011;9083;49.156;8.982;2024-02-26T11:33:08;5.03;;;3.03;;
17915;SDS011;9083;49.156;8.982;2024-02-26T11:35:35;2.80;;;2.60;;
17915;SDS011;9083;49.156;8.982;2024-02-26T11:38:02;5.50;;;2.27;;
17915;SDS011;9083;49.156;8.982;2024-02-26T11:40:30;3.00;;;2.80;;
17915;SDS011;9083;49.156;8.982;2024-02-26T11:42:57;5.23;;;2.90;;
17915;SDS011;9083;49.156;8.982;2024-02-26T11:48:12;2.30;;;2.10;;
17915;SDS011;9083;49.156;8.982;2024-02-26T11:50:39;4.07;;;2.70;;
17915;SDS011;9083;49.156;8.982;2024-02-26T11:55:47;8.87;;;2.30;;
17915;SDS011;9083;49.156;8.982;2024-02-26T11:58:14;3.10;;;2.17;;
17915;SDS011;9083;49.156;8.982;2024-02-26T12:00:40;5.80;;;2.70;;
17915;SDS011;9083;49.156;8.982;2024-02-26T12:03:07;4.60;;;2.60;;
17915;SDS011;9083;49.156;8.982;2024-02-26T12:05:36;2.50;;;2.30;;
17915;SDS011;9083;49.156;8.982;2024-02-26T12:08:04;3.30;;;2.60;;
17915;SDS011;9083;49.156;8.982;2024-02-26T12:10:32;4.83;;;2.20;;
17915;SDS011;9083;49.156;8.982;2024-02-26T12:13:10;2.27;;;2.17;;
17915;SDS011;9083;49.156;8.982;2024-02-26T12:15:38;17.40;;;3.43;;
17915;SDS011;9083;49.156;8.982;2024-02-26T12:18:05;7.00;;;2.40;;
17915;SDS011;9083;49.156;8.982;2024-02-26T12:20:32;3.43;;;1.90;;
17915;SDS011;9083;49.156;8.982;2024-02-26T12:23:01;12.67;;;3.00;;
17915;SDS011;9083;49.156;8.982;2024-02-26T12:25:28;2.03;;;1.93;;
17915;SDS011;9083;49.156;8.982;2024-02-26T12:27:55;11.90;;;3.27;;
17915;SDS011;9083;49.156;8.982;2024-02-26T12:30:22;10.07;;;3.20;;
17915;SDS011;9083;49.156;8.982;2024-02-26T12:32:48;13.60;;;2.60;;
17915;SDS011;9083;49.156;8.982;2024-02-26T12:35:15;15.27;;;3.03;;
17915;SDS011;9083;49.156;8.982;2024-02-26T12:37:41;10.63;;;3.70;;
17915;SDS011;9083;49.156;8.982;2024-02-26T12:40:09;4.70;;;2.67;;
17915;SDS011;9083;49.156;8.982;2024-02-26T12:42:36;2.23;;;2.03;;
17915;SDS011;9083;49.156;8.982;2024-02-26T12:45:05;5.90;;;2.40;;
17915;SDS011;9083;49.156;8.982;2024-02-26T12:47:34;13.93;;;3.07;;
17915;SDS011;9083;49.156;8.982;2024-02-26T12:50:01;8.27;;;2.60;;
17915;SDS011;9083;49.156;8.982;2024-02-26T12:52:29;25.60;;;3.40;;
17915;SDS011;9083;49.156;8.982;2024-02-26T12:54:55;5.33;;;2.00;;
17915;SDS011;9083;49.156;8.982;2024-02-26T12:57:23;6.07;;;2.17;;
17915;SDS011;9083;49.156;8.982;2024-02-26T12:59:49;5.43;;;2.37;;
17915;SDS011;9083;49.156;8.982;2024-02-26T13:02:16;4.80;;;2.00;;
17915;SDS011;9083;49.156;8.982;2024-02-26T13:04:42;4.30;;;2.10;;
17915;SDS011;9083;49.156;8.982;2024-02-26T13:07:09;4.83;;;2.33;;
17915;SDS011;9083;49.156;8.982;2024-02-26T13:09:35;7.67;;;2.50;;
17915;SDS011;9083;49.156;8.982;2024-02-26T13:12:03;2.70;;;1.93;;
17915;SDS011;9083;49.156;8.982;2024-02-26T13:14:31;10.30;;;2.53;;
17915;SDS011;9083;49.156;8.982;2024-02-26T13:16:59;3.50;;;1.90;;
17915;SDS011;9083;49.156;8.982;2024-02-26T13:19:25;6.23;;;1.73;;
17915;SDS011;9083;49.156;8.982;2024-02-26T13:21:52;17.17;;;2.90;;
17915;SDS011;9083;49.156;8.982;2024-02-26T13:24:19;2.23;;;1.60;;
17915;SDS011;9083;49.156;8.982;2024-02-26T13:26:45;44.37;;;4.27;;
17915;SDS011;9083;49.156;8.982;2024-02-26T13:29:16;4.20;;;1.80;;
17915;SDS011;9083;49.156;8.982;2024-02-26T13:31:44;1.50;;;1.40;;
17915;SDS011;9083;49.156;8.982;2024-02-26T13:34:11;15.00;;;2.53;;
17915;SDS011;9083;49.156;8.982;2024-02-26T13:36:37;37.80;;;4.20;;
17915;SDS011;9083;49.156;8.982;2024-02-26T13:39:04;15.13;;;1.97;;
17915;SDS011;9083;49.156;8.982;2024-02-26T13:41:30;7.83;;;1.77;;
17915;SDS011;9083;49.156;8.982;2024-02-26T13:43:57;1.13;;;1.03;;
17915;SDS011;9083;49.156;8.982;2024-02-26T13:46:23;2.10;;;1.23;;
17915;SDS011;9083;49.156;8.982;2024-02-26T13:48:51;2.50;;;1.10;;
17915;SDS011;9083;49.156;8.982;2024-02-26T13:51:19;7.90;;;2.13;;
17915;SDS011;9083;49.156;8.982;2024-02-26T13:53:46;4.00;;;1.30;;
17915;SDS011;9083;49.156;8.982;2024-02-26T13:56:12;6.43;;;1.67;;
17915;SDS011;9083;49.156;8.982;2024-02-26T13:58:38;19.40;;;3.17;;
17915;SDS011;9083;49.156;8.982;2024-02-26T14:01:04;3.73;;;1.53;;
17915;SDS011;9083;49.156;8.982;2024-02-26T14:03:31;3.00;;;1.63;;
17915;SDS011;9083;49.156;8.982;2024-02-26T14:05:58;6.20;;;1.50;;
17915;SDS011;9083;49.156;8.982;2024-02-26T14:08:25;8.43;;;1.63;;
17915;SDS011;9083;49.156;8.982;2024-02-26T14:10:51;15.90;;;2.07;;
17915;SDS011;9083;49.156;8.982;2024-02-26T14:13:17;3.73;;;1.53;;
17915;SDS011;9083;49.156;8.982;2024-02-26T14:15:43;5.50;;;1.23;;
17915;SDS011;9083;49.156;8.982;2024-02-26T14:18:10;15.27;;;2.97;;
17915;SDS011;9083;49.156;8.982;2024-02-26T14:20:36;3.37;;;1.37;;
17915;SDS011;9083;49.156;8.982;2024-02-26T14:23:05;1.43;;;1.20;;
17915;SDS011;9083;49.156;8.982;2024-02-26T14:25:32;1.53;;;1.23;;
17915;SDS011;9083;49.156;8.982;2024-02-26T14:27:58;0.60;;;0.60;;
17915;SDS011;9083;49.156;8.982;2024-02-26T14:30:25;8.20;;;2.00;;
17915;SDS011;9083;49.156;8.982;2024-02-26T14:32:51;3.67;;;1.67;;
17915;SDS011;9083;49.156;8.982;2024-02-26T14:35:17;5.23;;;1.20;;
17915;SDS011;9083;49.156;8.982;2024-02-26T14:37:44;0.80;;;0.80;;
17915;SDS011;9083;49.156;8.982;2024-02-26T14:40:12;10.13;;;1.97;;
17915;SDS011;9083;49.156;8.982;2024-02-26T14:42:39;5.60;;;1.50;;
17915;SDS011;9083;49.156;8.982;2024-02-26T14:45:06;1.17;;;1.00;;
17915;SDS011;9083;49.156;8.982;2024-02-26T14:47:34;1.27;;;1.17;;
17915;SDS011;9083;49.156;8.982;2024-02-26T14:50:00;3.27;;;1.20;;
17915;SDS011;9083;49.156;8.982;2024-02-26T14:52:26;5.40;;;1.77;;
17915;SDS011;9083;49.156;8.982;2024-02-26T14:54:53;17.47;;;3.27;;
17915;SDS011;9083;49.156;8.982;2024-02-26T14:57:20;8.40;;;1.60;;
17915;SDS011;9083;49.156;8.982;2024-02-26T14:59:46;5.10;;;1.57;;
17915;SDS011;9083;49.156;8.982;2024-02-26T15:02:13;13.17;;;2.40;;